Adak Island, Alaska
Current Conditions -  °F | °C
As of 1:36 AM on Sunday 21 Dec 2014 (Local Time) from PADK Reporting Station
Overcast Overcast  
Wind Chill: 30°   Ceiling: 1200
Heat Index: 39°   Visibility: 10mi
Dew Point: 36°   Wind: 18mph
Humidity: 87%   Direction: 340°NNW
Pressure: 29.38"   Gusts: 23mph
Location:  51.88°N, 176.65°W
Report Text: PADK 211036Z AUTO 34016G20KT 10SM BKN012 OVC023 04/02 A2938 RMK AO1
Loading
Personal Weather Stations






























Interactive Weather Map New forecast layout! Learn more

10-Day Weather Forecast

Advertisements
Track Severe Weather on mobile